Time;durP1;ratioP1;P1;durP2;ratioP2;P2;SDS_P1;SDS_P2;PMS_P1;PMS_P2;Temp;Humidity;BMP_temperature;BMP_pressure;BME280_temperature;BME280_humidity;BME280_pressure;Samples;Min_cycle;Max_cycle;Signal;HPM_P1;HPM_P2
2023/10/28 00:01:03;;;;;;;;;;;10.30;99.90;;;;;;5067109;28;20120;-58
2023/10/28 00:03:29;;;;;;;51.90;29.48;;;10.30;99.90;;;;;;5063441;28;20369;-58
2023/10/28 00:05:55;;;;;;;;;;;10.30;99.90;;;;;;5062856;28;20047;-58
2023/10/28 00:08:21;;;;;;;42.55;28.50;;;10.30;99.90;;;;;;5064738;28;19920;-58
2023/10/28 00:10:48;;;;;;;51.17;29.60;;;10.30;99.90;;;;;;5061210;28;20091;-57
2023/10/28 00:13:14;;;;;;;51.55;28.60;;;10.20;99.90;;;;;;5040707;28;20036;-59
2023/10/28 00:15:40;;;;;;;48.03;28.27;;;10.20;99.90;;;;;;5058957;28;20051;-59
2023/10/28 00:18:08;;;;;;;43.55;27.63;;;10.20;99.90;;;;;;5060658;28;20131;-59
2023/10/28 00:20:35;;;;;;;43.97;25.80;;;10.20;99.90;;;;;;5040584;28;20055;-59
2023/10/28 00:23:03;;;;;;;44.75;26.67;;;10.10;99.90;;;;;;5060564;28;20121;-58
2023/10/28 00:25:31;;;;;;;43.67;28.52;;;10.10;99.90;;;;;;5059489;28;20500;-59
2023/10/28 00:27:57;;;;;;;47.78;28.23;;;10.10;99.90;;;;;;5060581;28;20541;-59
2023/10/28 00:30:24;;;;;;;51.53;28.05;;;10.10;99.90;;;;;;5062319;28;20037;-59
2023/10/28 00:32:52;;;;;;;50.75;28.13;;;10.10;99.90;;;;;;5059674;28;20412;-59
2023/10/28 00:35:18;;;;;;;50.70;27.13;;;10.10;99.90;;;;;;5063539;28;20043;-58
2023/10/28 00:37:44;;;;;;;47.47;26.45;;;10.10;99.90;;;;;;5058978;28;20311;-58
2023/10/28 00:40:10;;;;;;;51.33;28.38;;;10.10;99.90;;;;;;5059606;28;20139;-58
2023/10/28 00:42:39;;;;;;;41.75;26.73;;;10.10;99.90;;;;;;5061164;28;20033;-59
2023/10/28 00:45:08;;;;;;;50.53;26.83;;;10.10;99.90;;;;;;5057096;28;20075;-59
2023/10/28 00:47:38;;;;;;;45.97;26.05;;;10.10;99.90;;;;;;5054050;28;20480;-59
2023/10/28 00:50:10;;;;;;;39.70;25.00;;;10.10;99.90;;;;;;5061687;28;20843;-59
2023/10/28 00:52:44;;;;;;;42.35;25.33;;;10.10;99.90;;;;;;5056991;28;20314;-58
2023/10/28 00:55:12;;;;;;;34.92;23.02;;;10.10;99.90;;;;;;5057814;28;20041;-59
2023/10/28 00:57:42;;;;;;;36.67;23.13;;;10.10;99.90;;;;;;5059863;28;20033;-59
2023/10/28 01:00:09;;;;;;;36.22;22.55;;;10.00;99.90;;;;;;5049449;28;20377;-59
2023/10/28 01:02:35;;;;;;;38.72;23.50;;;10.00;99.90;;;;;;5057926;28;20127;-59
2023/10/28 01:05:04;;;;;;;41.55;23.13;;;10.00;99.90;;;;;;5059546;28;20573;-58
2023/10/28 01:07:32;;;;;;;40.88;22.83;;;10.00;99.90;;;;;;5062488;28;20050;-58
2023/10/28 01:09:58;;;;;;;34.17;20.88;;;10.00;99.90;;;;;;5058125;28;20518;-59
2023/10/28 01:12:26;;;;;;;;;;;9.90;99.90;;;;;;5062822;28;20075;-57
2023/10/28 01:14:52;;;;;;;;;;;9.90;99.90;;;;;;5057347;28;19920;-57
2023/10/28 01:17:18;;;;;;;38.25;21.17;;;9.90;99.90;;;;;;5061098;28;19971;-58
2023/10/28 01:19:44;;;;;;;33.78;20.38;;;9.90;99.90;;;;;;5058906;28;20036;-57
2023/10/28 01:22:09;;;;;;;37.78;21.83;;;9.80;99.90;;;;;;5062131;28;20056;-57
2023/10/28 01:24:35;;;;;;;35.83;19.85;;;9.80;99.90;;;;;;5058916;28;20032;-59
2023/10/28 01:27:02;;;;;;;34.03;19.92;;;9.80;99.90;;;;;;5059396;28;20044;-58
2023/10/28 01:29:28;;;;;;;31.95;19.73;;;9.80;99.90;;;;;;5060887;28;20043;-58
2023/10/28 01:31:55;;;;;;;35.03;20.35;;;9.80;99.90;;;;;;5059372;28;20037;-58
2023/10/28 01:34:22;;;;;;;33.00;19.63;;;9.70;99.90;;;;;;5058374;28;20049;-58
2023/10/28 01:36:48;;;;;;;30.52;18.38;;;9.70;99.90;;;;;;5039442;28;20400;-59
2023/10/28 01:39:15;;;;;;;35.92;19.17;;;9.70;99.90;;;;;;5062602;28;20399;-57
2023/10/28 01:41:42;;;;;;;32.80;18.75;;;9.70;99.90;;;;;;5059136;28;20534;-59
2023/10/28 01:44:08;;;;;;;37.30;19.88;;;9.70;99.90;;;;;;5062616;28;20047;-59
2023/10/28 01:46:33;;;;;;;30.38;19.13;;;9.60;99.90;;;;;;5043922;28;20048;-57
2023/10/28 01:48:59;;;;;;;29.87;18.63;;;9.60;99.90;;;;;;5057501;28;20032;-58
2023/10/28 01:51:24;;;;;;;29.80;17.70;;;9.60;99.90;;;;;;5062516;28;20063;-58
2023/10/28 01:53:51;;;;;;;30.87;18.63;;;9.60;99.90;;;;;;5053191;28;20279;-58
2023/10/28 01:56:17;;;;;;;26.67;17.85;;;9.60;99.90;;;;;;5060914;28;20407;-57
2023/10/28 01:58:42;;;;;;;29.93;16.63;;;9.50;99.90;;;;;;5057698;28;20032;-58
2023/10/28 02:01:09;;;;;;;30.10;17.37;;;9.50;99.90;;;;;;5063585;28;20346;-59
2023/10/28 02:03:34;;;;;;;;;;;9.50;99.90;;;;;;5057902;28;20124;-58
2023/10/28 02:06:00;;;;;;;25.88;16.65;;;9.50;99.90;;;;;;5039068;28;19999;-59
2023/10/28 02:08:25;;;;;;;27.17;17.57;;;9.50;99.90;;;;;;5057990;28;20033;-59
2023/10/28 02:10:51;;;;;;;32.03;17.03;;;9.50;99.90;;;;;;5059391;28;20363;-58
2023/10/28 02:13:16;;;;;;;35.23;17.73;;;9.50;99.90;;;;;;5037406;28;20448;-59
2023/10/28 02:15:44;;;;;;;29.03;16.93;;;9.50;99.90;;;;;;5055883;28;20301;-57
2023/10/28 02:18:10;;;;;;;36.78;18.95;;;9.40;99.90;;;;;;5040077;28;20041;-57
2023/10/28 02:20:36;;;;;;;32.80;18.63;;;9.40;99.90;;;;;;5061522;28;20042;-57
2023/10/28 02:23:02;;;;;;;24.48;16.15;;;9.40;99.90;;;;;;5057267;28;20036;-57
2023/10/28 02:25:28;;;;;;;27.73;16.10;;;9.40;99.90;;;;;;5062927;28;20035;-57
2023/10/28 02:27:53;;;;;;;27.73;16.67;;;9.40;99.90;;;;;;5057590;28;20025;-59
2023/10/28 02:30:19;;;;;;;27.38;15.85;;;9.40;99.90;;;;;;5050105;28;20040;-58
2023/10/28 02:32:45;;;;;;;28.08;15.50;;;9.40;99.90;;;;;;5064757;28;20037;-58
2023/10/28 02:35:11;;;;;;;27.52;16.63;;;9.40;99.90;;;;;;5062433;28;20045;-57
2023/10/28 02:37:37;;;;;;;31.17;17.17;;;9.40;99.90;;;;;;5043969;28;20036;-57
2023/10/28 02:40:03;;;;;;;28.63;15.23;;;9.50;99.90;;;;;;5061146;28;20040;-58
2023/10/28 02:42:29;;;;;;;35.50;16.85;;;9.50;99.90;;;;;;5045758;28;20045;-57
2023/10/28 02:44:54;;;;;;;36.88;15.93;;;9.50;99.90;;;;;;5043659;28;20030;-57
2023/10/28 02:47:20;;;;;;;27.53;14.97;;;9.50;99.90;;;;;;5046031;28;20045;-58
2023/10/28 02:49:46;;;;;;;28.35;15.45;;;9.50;99.90;;;;;;5065459;28;20387;-58
2023/10/28 02:52:12;;;;;;;26.60;15.07;;;9.50;99.90;;;;;;5044573;28;20044;-59
2023/10/28 02:54:38;;;;;;;;;;;9.50;99.90;;;;;;5063791;28;20117;-57
2023/10/28 02:57:03;;;;;;;41.42;17.33;;;9.50;99.90;;;;;;5054889;28;20466;-58
2023/10/28 02:59:29;;;;;;;20.40;15.50;;;9.50;99.90;;;;;;5043985;28;20037;-58
2023/10/28 03:01:55;;;;;;;24.27;15.02;;;9.60;99.90;;;;;;5060770;28;20183;-58
2023/10/28 03:04:21;;;;;;;34.55;14.93;;;9.50;99.90;;;;;;5065700;28;20123;-57
2023/10/28 03:06:47;;;;;;;28.15;14.35;;;9.60;99.90;;;;;;5062838;28;20473;-58
2023/10/28 03:09:13;;;;;;;31.23;16.15;;;9.60;99.90;;;;;;5059433;28;20094;-58
2023/10/28 03:11:38;;;;;;;24.77;15.23;;;9.60;99.90;;;;;;5061465;28;20028;-58
2023/10/28 03:14:04;;;;;;;31.83;15.37;;;9.60;99.90;;;;;;5045689;28;20048;-57
2023/10/28 03:16:31;;;;;;;36.40;16.30;;;9.70;99.90;;;;;;5066746;28;20329;-59
2023/10/28 03:18:56;;;;;;;24.95;15.82;;;9.70;99.90;;;;;;5062808;28;20041;-59
2023/10/28 03:21:22;;;;;;;35.45;15.60;;;9.70;99.90;;;;;;5062215;28;20211;-57
2023/10/28 03:23:48;;;;;;;24.05;15.00;;;9.80;99.90;;;;;;5061535;28;20067;-57
2023/10/28 03:26:14;;;;;;;30.70;15.50;;;9.80;99.90;;;;;;5065592;28;20052;-55
2023/10/28 03:28:40;;;;;;;29.65;14.38;;;9.80;99.90;;;;;;5062474;28;20115;-58
2023/10/28 03:31:12;;;;;;;28.67;14.23;;;9.80;99.90;;;;;;5066736;28;20120;-59
2023/10/28 03:33:41;;;;;;;26.92;14.25;;;9.80;99.90;;;;;;5056149;28;20064;-59
2023/10/28 03:36:10;;;;;;;34.42;14.88;;;9.90;99.90;;;;;;5061516;28;20491;-57
2023/10/28 03:38:36;;;;;;;25.80;14.48;;;9.90;99.90;;;;;;5056970;28;20049;-59
2023/10/28 03:41:06;;;;;;;23.38;12.88;;;9.90;99.90;;;;;;5063806;28;20040;-58
2023/10/28 03:43:31;;;;;;;29.38;14.25;;;9.90;99.90;;;;;;5063232;28;20419;-58
2023/10/28 03:45:57;;;;;;;25.13;14.47;;;10.00;99.90;;;;;;5065380;28;20044;-59
2023/10/28 03:48:23;;;;;;;32.30;13.53;;;10.00;99.90;;;;;;5063659;28;20454;-59
2023/10/28 03:51:00;;;;;;;28.30;14.03;;;10.00;99.90;;;;;;5060907;28;20043;-58
2023/10/28 03:53:25;;;;;;;26.27;14.05;;;10.00;99.90;;;;;;5047405;28;20297;-58
2023/10/28 03:55:51;;;;;;;34.33;14.13;;;10.00;99.90;;;;;;5046371;28;20049;-59
2023/10/28 03:58:17;;;;;;;31.33;13.88;;;10.00;99.90;;;;;;5066240;28;20082;-58
2023/10/28 04:00:43;;;;;;;22.10;14.30;;;10.00;99.90;;;;;;5058045;28;20371;-59
2023/10/28 04:03:08;;;;;;;31.52;15.95;;;10.00;99.90;;;;;;5063356;28;20283;-58
2023/10/28 04:05:34;;;;;;;47.08;14.50;;;10.00;99.90;;;;;;5062283;28;20040;-58
2023/10/28 04:08:00;;;;;;;32.15;13.35;;;10.00;99.90;;;;;;5058361;28;20061;-58
2023/10/28 04:10:25;;;;;;;25.80;14.93;;;10.00;99.90;;;;;;5050471;28;20040;-58
2023/10/28 04:12:51;;;;;;;28.93;13.40;;;10.00;99.90;;;;;;5057446;28;20120;-58
2023/10/28 04:15:18;;;;;;;27.13;13.57;;;10.00;99.90;;;;;;5055728;28;20280;-59
2023/10/28 04:17:44;;;;;;;29.45;14.07;;;10.00;99.90;;;;;;5063206;28;20120;-58
2023/10/28 04:20:10;;;;;;;23.13;14.27;;;10.00;99.90;;;;;;5061784;28;20124;-58
2023/10/28 04:22:36;;;;;;;25.20;14.27;;;10.10;99.90;;;;;;5059893;28;20063;-57
2023/10/28 04:25:03;;;;;;;27.58;13.10;;;10.10;99.90;;;;;;5058381;28;20048;-58
2023/10/28 04:27:29;;;;;;;20.00;13.10;;;10.10;99.90;;;;;;5062086;28;20044;-58
2023/10/28 04:29:54;;;;;;;22.85;12.82;;;10.10;99.90;;;;;;5061339;28;20048;-58
2023/10/28 04:32:22;;;;;;;28.45;13.70;;;10.10;99.90;;;;;;5063028;28;20386;-57
2023/10/28 04:34:49;;;;;;;29.05;13.82;;;10.10;99.90;;;;;;5058621;28;20508;-59
2023/10/28 04:37:15;;;;;;;26.13;13.73;;;10.20;99.90;;;;;;5062489;28;20049;-59
2023/10/28 04:39:41;;;;;;;28.77;14.30;;;10.20;99.90;;;;;;5061585;28;20035;-58
2023/10/28 04:42:07;;;;;;;21.17;12.32;;;10.20;99.90;;;;;;5060178;28;20479;-59
2023/10/28 04:44:33;;;;;;;29.83;12.93;;;10.20;99.90;;;;;;5063036;28;20037;-58
2023/10/28 04:47:01;;;;;;;23.23;12.63;;;10.20;99.90;;;;;;5062369;28;20064;-59
2023/10/28 04:49:29;;;;;;;26.60;13.05;;;10.20;99.90;;;;;;5056490;28;20553;-59
2023/10/28 04:51:55;;;;;;;23.08;11.75;;;10.20;99.90;;;;;;5063696;28;20062;-59
2023/10/28 04:54:21;;;;;;;28.50;13.10;;;10.30;99.90;;;;;;5063085;28;20048;-59
2023/10/28 04:56:48;;;;;;;22.15;11.50;;;10.20;99.90;;;;;;5063026;28;20040;-59
2023/10/28 04:59:15;;;;;;;27.30;12.27;;;10.20;99.90;;;;;;5059355;28;20517;-59
2023/10/28 05:01:41;;;;;;;24.60;12.20;;;10.20;99.90;;;;;;5061423;28;20414;-59
2023/10/28 05:04:09;;;;;;;22.35;11.38;;;10.30;99.90;;;;;;5059504;28;20097;-58
2023/10/28 05:06:35;;;;;;;26.30;10.43;;;10.30;99.90;;;;;;5045103;28;20056;-59
2023/10/28 05:09:01;;;;;;;21.20;11.18;;;10.30;99.90;;;;;;5063032;28;20549;-59
2023/10/28 05:11:26;;;;;;;15.38;10.30;;;10.30;99.90;;;;;;5061459;28;20028;-58
2023/10/28 05:13:52;;;;;;;22.10;9.98;;;10.20;99.90;;;;;;5055198;28;20067;-59
2023/10/28 05:16:19;;;;;;;18.63;9.57;;;10.30;99.90;;;;;;5055525;28;20044;-59
2023/10/28 05:18:45;;;;;;;16.45;8.90;;;10.20;99.90;;;;;;5056484;28;20150;-59
2023/10/28 05:21:11;;;;;;;20.25;9.38;;;10.20;99.90;;;;;;5060182;28;20045;-59
2023/10/28 05:23:38;;;;;;;21.42;8.48;;;10.30;99.90;;;;;;5058408;28;20036;-58
2023/10/28 05:26:04;;;;;;;;;;;10.20;99.90;;;;;;5060860;28;20052;-57
2023/10/28 05:28:30;;;;;;;12.13;7.82;;;10.20;99.90;;;;;;5054060;28;19925;-58
2023/10/28 05:30:56;;;;;;;13.52;6.38;;;10.20;99.90;;;;;;5058521;28;20061;-58
2023/10/28 05:33:21;;;;;;;12.43;7.07;;;10.20;99.90;;;;;;5046776;28;21542;-59
2023/10/28 05:35:48;;;;;;;14.40;8.27;;;10.20;99.90;;;;;;5043418;28;20539;-59
2023/10/28 05:38:14;;;;;;;18.27;7.65;;;10.20;99.90;;;;;;5014749;28;20052;-58
2023/10/28 05:40:40;;;;;;;18.27;7.47;;;10.20;99.90;;;;;;5030268;28;20029;-59
2023/10/28 05:43:05;;;;;;;15.55;7.53;;;10.20;99.90;;;;;;5036937;28;20044;-59
2023/10/28 05:45:31;;;;;;;13.63;6.53;;;10.20;99.90;;;;;;5037037;28;20033;-59
2023/10/28 05:47:57;;;;;;;12.80;6.15;;;10.20;99.90;;;;;;5041548;28;20123;-59
2023/10/28 05:50:23;;;;;;;;;;;10.20;99.90;;;;;;5038500;28;20041;-59
2023/10/28 05:52:49;;;;;;;15.43;6.78;;;10.20;99.90;;;;;;5036987;28;20387;-58
2023/10/28 05:55:15;;;;;;;16.27;8.35;;;10.20;99.90;;;;;;5041448;28;20487;-56
2023/10/28 05:57:41;;;;;;;11.43;6.82;;;10.20;99.90;;;;;;5031814;28;20455;-59
2023/10/28 06:00:10;;;;;;;10.80;7.13;;;10.20;99.90;;;;;;5034522;28;20518;-58
2023/10/28 06:02:37;;;;;;;15.70;7.03;;;10.20;99.90;;;;;;5048634;28;20075;-57
2023/10/28 06:05:05;;;;;;;13.80;6.60;;;10.20;99.90;;;;;;5038985;28;20040;-57
2023/10/28 06:07:31;;;;;;;10.57;6.15;;;10.20;99.90;;;;;;5063473;28;20044;-58
2023/10/28 06:09:57;;;;;;;13.68;5.55;;;10.20;99.90;;;;;;5060001;28;20143;-58
2023/10/28 06:12:24;;;;;;;13.20;5.95;;;10.10;99.90;;;;;;5042410;28;20048;-57
2023/10/28 06:14:50;;;;;;;8.50;5.40;;;10.10;99.90;;;;;;5054621;28;20032;-58
2023/10/28 06:17:17;;;;;;;10.00;5.80;;;10.10;99.90;;;;;;5054248;28;20502;-58
2023/10/28 06:19:42;;;;;;;8.75;6.15;;;10.10;99.90;;;;;;5051317;28;20111;-57
2023/10/28 06:22:11;;;;;;;9.15;5.57;;;10.10;99.90;;;;;;5052076;28;20444;-57
2023/10/28 06:24:38;;;;;;;10.35;5.82;;;10.10;99.90;;;;;;5055467;28;20044;-55
2023/10/28 06:27:04;;;;;;;11.00;5.13;;;10.10;99.90;;;;;;5054840;28;20050;-56
2023/10/28 06:29:30;;;;;;;;;;;10.10;99.90;;;;;;5057353;28;20115;-57
2023/10/28 06:31:58;;;;;;;7.72;5.43;;;10.10;99.90;;;;;;5048330;28;19924;-57
2023/10/28 06:34:27;;;;;;;11.73;4.72;;;10.10;99.90;;;;;;5061004;28;20055;-57
2023/10/28 06:36:53;;;;;;;6.72;4.53;;;10.10;99.90;;;;;;5056116;28;20037;-55
2023/10/28 06:39:19;;;;;;;;;;;10.10;99.90;;;;;;5059889;28;20545;-57
2023/10/28 06:41:44;;;;;;;9.75;4.65;;;10.10;99.90;;;;;;5058022;28;20019;-58
2023/10/28 06:44:10;;;;;;;12.53;4.87;;;10.10;99.90;;;;;;5062629;28;20144;-57
2023/10/28 06:46:36;;;;;;;7.45;4.28;;;10.10;99.90;;;;;;5064210;28;20430;-57
2023/10/28 06:49:02;;;;;;;8.05;3.58;;;10.00;99.90;;;;;;5060392;28;20442;-56
2023/10/28 06:51:28;;;;;;;7.65;4.10;;;10.10;99.90;;;;;;5062109;28;20036;-57
2023/10/28 06:53:54;;;;;;;7.60;3.60;;;10.10;99.90;;;;;;5061575;28;20032;-57
2023/10/28 06:56:19;;;;;;;10.52;3.10;;;10.10;99.90;;;;;;5045400;28;20201;-56
2023/10/28 06:58:45;;;;;;;7.43;3.22;;;10.10;99.90;;;;;;5045749;28;20029;-56
2023/10/28 07:01:11;;;;;;;5.33;3.23;;;10.10;99.90;;;;;;5062249;28;20200;-56
2023/10/28 07:03:40;;;;;;;6.93;2.97;;;10.10;99.90;;;;;;5062686;28;20278;-58
2023/10/28 07:06:09;;;;;;;7.18;3.65;;;10.10;99.90;;;;;;5044753;28;20045;-58
2023/10/28 07:08:36;;;;;;;7.10;2.90;;;10.20;99.90;;;;;;5057439;28;20116;-58
2023/10/28 07:11:02;;;;;;;4.40;3.10;;;10.20;99.90;;;;;;5054823;28;20507;-56
2023/10/28 07:13:27;;;;;;;7.60;3.03;;;10.20;99.90;;;;;;5064298;28;20052;-59
2023/10/28 07:16:03;;;;;;;10.32;2.72;;;10.20;99.90;;;;;;5041547;28;20087;-57
2023/10/28 07:18:30;;;;;;;16.73;3.87;;;10.30;99.90;;;;;;5064581;28;20230;-56
2023/10/28 07:20:56;;;;;;;8.02;3.00;;;10.30;99.90;;;;;;5065916;28;20064;-58
2023/10/28 07:23:26;;;;;;;8.05;3.25;;;10.30;99.90;;;;;;5066076;28;20115;-58
2023/10/28 07:25:56;;;;;;;5.47;3.08;;;10.30;99.90;;;;;;5056631;28;20080;-58
2023/10/28 07:28:21;;;;;;;7.88;3.90;;;10.30;99.90;;;;;;5056633;28;20051;-55
2023/10/28 07:30:50;;;;;;;5.32;3.15;;;10.40;99.90;;;;;;5047922;28;20032;-57
2023/10/28 07:33:16;;;;;;;8.05;3.30;;;10.40;99.90;;;;;;5031285;28;20531;-58
2023/10/28 07:35:42;;;;;;;;;;;10.40;99.90;;;;;;5031827;28;20085;-59
2023/10/28 07:38:08;;;;;;;5.53;2.88;;;10.40;99.90;;;;;;5051366;28;20414;-59
2023/10/28 07:40:34;;;;;;;4.83;2.97;;;10.40;99.90;;;;;;5051531;28;20042;-58
2023/10/28 07:42:59;;;;;;;8.00;3.92;;;10.40;99.90;;;;;;5034058;28;20049;-56
2023/10/28 07:45:25;;;;;;;7.10;3.58;;;10.40;99.90;;;;;;5063446;28;20060;-58
2023/10/28 07:47:51;;;;;;;5.60;2.73;;;10.40;99.90;;;;;;5058626;28;20048;-58
2023/10/28 07:50:16;;;;;;;8.33;3.20;;;10.50;99.90;;;;;;5049529;28;20049;-57
2023/10/28 07:52:42;;;;;;;7.80;3.27;;;10.50;99.90;;;;;;5050320;28;20271;-57
2023/10/28 07:55:08;;;;;;;8.57;3.53;;;10.50;99.90;;;;;;5065482;28;20611;-57
2023/10/28 07:57:33;;;;;;;5.88;3.28;;;10.50;99.90;;;;;;5048860;28;20294;-57
2023/10/28 07:59:59;;;;;;;8.50;3.63;;;10.50;99.90;;;;;;5060105;28;20056;-57
2023/10/28 08:02:25;;;;;;;6.13;3.85;;;10.50;99.90;;;;;;5055316;28;20086;-58
2023/10/28 08:04:54;;;;;;;7.90;4.03;;;10.60;99.90;;;;;;5053408;28;20044;-57
2023/10/28 08:07:19;;;;;;;6.65;3.30;;;10.60;99.90;;;;;;5062024;28;20333;-57
2023/10/28 08:09:45;;;;;;;11.37;4.77;;;10.60;99.90;;;;;;5045086;28;20028;-56
2023/10/28 08:12:11;;;;;;;6.13;4.13;;;10.60;99.90;;;;;;5056733;28;20636;-58
2023/10/28 08:14:40;;;;;;;9.30;4.82;;;10.60;99.90;;;;;;5064353;28;20040;-58
2023/10/28 08:17:05;;;;;;;11.60;6.15;;;10.70;99.90;;;;;;5056647;28;20066;-57
2023/10/28 08:19:31;;;;;;;12.20;5.33;;;10.70;99.90;;;;;;5037102;28;20441;-58
2023/10/28 08:21:58;;;;;;;11.80;4.33;;;10.70;99.90;;;;;;5051402;28;20283;-56
2023/10/28 08:24:25;;;;;;;10.30;4.85;;;10.70;99.90;;;;;;5053686;28;20056;-55
2023/10/28 08:26:50;;;;;;;9.93;4.40;;;10.70;99.90;;;;;;5057738;28;20036;-56
2023/10/28 08:29:16;;;;;;;10.10;4.03;;;10.80;99.90;;;;;;5057064;28;20071;-58
2023/10/28 08:31:42;;;;;;;5.70;3.17;;;10.80;99.90;;;;;;5057972;28;20669;-57
2023/10/28 08:34:07;;;;;;;7.40;3.40;;;10.90;99.90;;;;;;5061305;28;20032;-58
2023/10/28 08:36:36;;;;;;;8.48;3.75;;;10.90;99.90;;;;;;5057215;28;20780;-57
2023/10/28 08:39:03;;;;;;;8.77;3.28;;;11.00;99.90;;;;;;5056685;28;20116;-58
2023/10/28 08:41:31;;;;;;;18.17;4.28;;;11.00;99.90;;;;;;5050048;28;20073;-57
2023/10/28 08:43:58;;;;;;;6.15;3.13;;;11.10;99.90;;;;;;5059535;28;20072;-58
2023/10/28 08:46:24;;;;;;;7.55;2.55;;;11.10;99.90;;;;;;5057973;28;20399;-58
2023/10/28 08:48:52;;;;;;;10.13;3.95;;;11.10;99.90;;;;;;5049750;28;20095;-57
2023/10/28 08:51:18;;;;;;;14.52;7.30;;;11.20;99.90;;;;;;5049351;28;20051;-61
2023/10/28 08:53:46;;;;;;;11.48;6.05;;;11.20;99.90;;;;;;5047867;28;20034;-59
2023/10/28 08:56:17;;;;;;;7.30;3.78;;;11.20;99.90;;;;;;5058485;28;20191;-58
2023/10/28 08:58:45;;;;;;;8.68;3.05;;;11.20;99.90;;;;;;5061805;28;20076;-59
2023/10/28 09:01:11;;;;;;;9.73;3.83;;;11.20;99.90;;;;;;5063317;28;20042;-59
2023/10/28 09:03:40;;;;;;;9.93;3.58;;;11.20;99.90;;;;;;5046442;28;20040;-59
2023/10/28 09:06:06;;;;;;;10.20;3.88;;;11.20;99.90;;;;;;5060795;28;20079;-59
2023/10/28 09:08:31;;;;;;;10.63;2.97;;;11.20;99.90;;;;;;5059003;28;20080;-59
2023/10/28 09:10:57;;;;;;;9.23;2.58;;;11.30;99.90;;;;;;5060206;28;20041;-59
2023/10/28 09:13:23;;;;;;;10.10;3.15;;;11.30;99.90;;;;;;5064170;28;20047;-58
2023/10/28 09:15:51;;;;;;;18.17;3.90;;;11.30;99.90;;;;;;5049817;28;20123;-59
2023/10/28 09:18:16;;;;;;;7.30;2.75;;;11.30;99.90;;;;;;5069254;28;20485;-58
2023/10/28 09:20:42;;;;;;;6.97;3.27;;;11.30;99.90;;;;;;5069624;28;20037;-58
2023/10/28 09:23:08;;;;;;;8.95;2.70;;;11.40;99.90;;;;;;5064008;28;20029;-58
2023/10/28 09:25:36;;;;;;;5.10;2.88;;;11.40;99.90;;;;;;5060881;28;20040;-59
2023/10/28 09:28:07;;;;;;;9.60;3.22;;;11.40;99.90;;;;;;5069294;28;20354;-59
2023/10/28 09:30:43;;;;;;;5.93;2.38;;;11.40;99.90;;;;;;5069297;28;20071;-57
2023/10/28 09:33:10;;;;;;;3.10;2.08;;;11.40;99.90;;;;;;5069139;28;20036;-59
2023/10/28 09:35:37;;;;;;;;;;;11.40;99.90;;;;;;5061014;28;20059;-59
2023/10/28 09:38:03;;;;;;;9.77;2.63;;;11.40;99.90;;;;;;5060918;28;19958;-58
2023/10/28 09:40:29;;;;;;;7.20;3.13;;;11.40;99.90;;;;;;5066735;28;20037;-59
2023/10/28 09:42:55;;;;;;;6.50;3.22;;;11.40;99.90;;;;;;5066995;28;20570;-59
2023/10/28 09:45:22;;;;;;;4.57;2.58;;;11.50;99.90;;;;;;5041316;28;20094;-59
2023/10/28 09:47:51;;;;;;;7.18;3.22;;;11.50;99.90;;;;;;5062603;28;20048;-57
2023/10/28 09:50:22;;;;;;;7.75;2.55;;;11.50;99.90;;;;;;5055417;28;20033;-58
2023/10/28 09:52:51;;;;;;;8.18;2.67;;;11.50;99.90;;;;;;5044667;28;20460;-57
2023/10/28 09:55:21;;;;;;;7.65;2.80;;;11.50;99.90;;;;;;5054933;28;20575;-57
2023/10/28 09:57:47;;;;;;;8.23;3.13;;;11.60;99.90;;;;;;5056109;28;20048;-58
2023/10/28 10:00:19;;;;;;;6.25;2.13;;;11.60;99.90;;;;;;5056181;28;20407;-57
2023/10/28 10:03:22;;;;;;;3.92;2.35;;;11.60;99.90;;;;;;5060408;28;20094;-58
2023/10/28 10:05:49;;;;;;;4.93;2.13;;;11.60;99.90;;;;;;5056176;28;20036;-59
2023/10/28 10:08:23;;;;;;;7.00;2.95;;;11.60;99.90;;;;;;5060731;28;20398;-59
2023/10/28 10:10:51;;;;;;;6.80;3.03;;;11.60;99.90;;;;;;5054413;28;20094;-59
2023/10/28 10:13:17;;;;;;;5.38;2.60;;;11.70;99.90;;;;;;5056522;28;20033;-60
2023/10/28 10:15:57;;;;;;;5.07;2.60;;;11.70;99.90;;;;;;5063147;28;20032;-59
2023/10/28 10:18:38;;;;;;;3.05;2.22;;;11.70;99.90;;;;;;5051056;28;20030;-59
2023/10/28 10:21:09;;;;;;;6.43;2.42;;;11.80;99.90;;;;;;5042320;28;20124;-60
2023/10/28 10:23:49;;;;;;;6.43;2.28;;;11.80;99.90;;;;;;5063049;28;20661;-60
2023/10/28 10:26:21;;;;;;;8.75;3.15;;;11.90;99.90;;;;;;5063257;28;20111;-59
2023/10/28 10:28:47;;;;;;;10.07;2.72;;;11.90;99.90;;;;;;5058598;28;20047;-60
2023/10/28 10:31:16;;;;;;;9.90;2.97;;;11.90;99.90;;;;;;5052284;28;20040;-59
2023/10/28 10:33:42;;;;;;;6.90;2.40;;;12.00;99.90;;;;;;5044985;28;20507;-59
2023/10/28 10:36:25;;;;;;;5.57;2.25;;;12.00;99.90;;;;;;5053206;28;20190;-60
2023/10/28 10:38:51;;;;;;;3.60;1.55;;;12.00;99.90;;;;;;5043719;28;20045;-60
2023/10/28 10:41:30;;;;;;;8.03;1.87;;;12.00;99.90;;;;;;5055368;28;20059;-59
2023/10/28 10:43:55;;;;;;;9.85;2.47;;;12.00;99.90;;;;;;5062871;28;20782;-59
2023/10/28 10:46:21;;;;;;;6.10;3.00;;;12.00;99.90;;;;;;5067952;28;20041;-58
2023/10/28 10:48:47;;;;;;;7.45;2.50;;;12.00;99.90;;;;;;5060575;28;20033;-59
2023/10/28 10:51:15;;;;;;;9.13;2.63;;;12.00;99.90;;;;;;5067138;28;20032;-59
2023/10/28 10:53:44;;;;;;;5.95;1.92;;;12.00;99.90;;;;;;5048828;28;20049;-59
2023/10/28 10:56:20;;;;;;;4.00;1.63;;;12.00;99.90;;;;;;5059249;28;20036;-59
2023/10/28 10:58:45;;;;;;;6.35;2.70;;;12.00;99.90;;;;;;5054989;28;20048;-59
2023/10/28 11:01:12;;;;;;;6.70;2.35;;;12.00;99.90;;;;;;5058066;28;20529;-59
2023/10/28 11:03:39;;;;;;;8.48;2.67;;;12.00;99.90;;;;;;5064492;28;20124;-60
2023/10/28 11:06:05;;;;;;;5.25;2.45;;;12.10;99.90;;;;;;5063906;28;20120;-60
2023/10/28 11:08:31;;;;;;;;;;;12.20;99.90;;;;;;5058228;28;20040;-60
2023/10/28 11:10:57;;;;;;;4.25;1.90;;;12.20;99.90;;;;;;5056561;28;19971;-60
2023/10/28 11:13:22;;;;;;;4.25;1.67;;;12.20;99.90;;;;;;5060403;28;20047;-60
2023/10/28 11:15:49;;;;;;;5.30;2.25;;;12.30;99.90;;;;;;5061621;28;20036;-60
2023/10/28 11:18:15;;;;;;;5.80;1.67;;;12.30;99.90;;;;;;5045497;28;20037;-60
2023/10/28 11:20:42;;;;;;;9.50;2.42;;;12.30;99.90;;;;;;5058329;28;20094;-59
2023/10/28 11:23:08;;;;;;;5.22;1.80;;;12.30;99.90;;;;;;5050943;28;20037;-60
2023/10/28 11:25:35;;;;;;;6.38;1.92;;;12.30;99.90;;;;;;5070032;28;20040;-60
2023/10/28 11:28:08;;;;;;;5.63;1.95;;;12.30;99.90;;;;;;5065221;28;20052;-59
2023/10/28 11:30:33;;;;;;;11.63;2.28;;;12.30;99.90;;;;;;5066824;28;20040;-62
2023/10/28 11:33:07;;;;;;;5.60;1.77;;;12.40;99.90;;;;;;5069706;28;20469;-59
2023/10/28 11:35:34;;;;;;;7.30;1.83;;;12.40;99.90;;;;;;5060169;28;20044;-59
2023/10/28 11:38:03;;;;;;;4.88;1.40;;;12.40;99.90;;;;;;5066360;28;20055;-60
2023/10/28 11:40:29;;;;;;;5.28;1.67;;;12.50;99.90;;;;;;5065660;28;20423;-60
2023/10/28 11:42:55;;;;;;;4.80;1.45;;;12.50;99.90;;;;;;5064557;28;20399;-59
2023/10/28 11:45:21;;;;;;;5.25;1.30;;;12.50;99.90;;;;;;5071081;28;20036;-60
2023/10/28 11:47:46;;;;;;;8.98;1.98;;;12.50;99.90;;;;;;5064008;28;20051;-59
2023/10/28 11:50:12;;;;;;;4.43;1.50;;;12.50;99.90;;;;;;5064625;28;20028;-59
2023/10/28 11:52:38;;;;;;;5.05;1.27;;;12.60;99.90;;;;;;5067966;28;20036;-59
2023/10/28 11:55:08;;;;;;;6.68;2.00;;;12.80;99.90;;;;;;5050367;28;20052;-58
2023/10/28 11:57:33;;;;;;;6.35;1.67;;;12.90;99.90;;;;;;5064876;28;20482;-60
2023/10/28 11:59:59;;;;;;;5.57;2.00;;;13.00;99.90;;;;;;5067347;28;20073;-60
2023/10/28 12:02:25;;;;;;;6.28;1.80;;;12.90;99.90;;;;;;5070537;28;20075;-58
2023/10/28 12:04:51;;;;;;;6.70;1.30;;;13.00;99.90;;;;;;5063372;28;20068;-59
2023/10/28 12:07:16;;;;;;;4.43;1.63;;;13.00;99.90;;;;;;5062866;28;20347;-59
2023/10/28 12:09:42;;;;;;;6.78;2.10;;;13.00;99.90;;;;;;5059490;28;20037;-58
2023/10/28 12:12:09;;;;;;;2.53;0.90;;;13.00;99.90;;;;;;5061884;28;20041;-59
2023/10/28 12:14:35;;;;;;;4.75;1.70;;;13.00;99.90;;;;;;5069205;28;20040;-60
2023/10/28 12:17:01;;;;;;;3.72;1.33;;;12.90;99.90;;;;;;5067146;28;20033;-57
2023/10/28 12:19:27;;;;;;;5.13;1.17;;;12.90;99.90;;;;;;5071048;28;20106;-59
2023/10/28 12:21:52;;;;;;;8.23;1.83;;;12.90;99.90;;;;;;5070510;28;20039;-59
2023/10/28 12:24:18;;;;;;;6.68;1.55;;;12.90;99.90;;;;;;5069920;28;20103;-60
2023/10/28 12:26:44;;;;;;;3.70;0.95;;;12.90;99.90;;;;;;5070700;28;20037;-59
2023/10/28 12:29:10;;;;;;;4.88;1.38;;;12.90;99.90;;;;;;5066795;28;20036;-60
2023/10/28 12:31:35;;;;;;;7.82;1.48;;;12.90;99.90;;;;;;5065779;28;20040;-58
2023/10/28 12:34:03;;;;;;;4.30;1.25;;;12.90;99.90;;;;;;5065485;28;20465;-57
2023/10/28 12:36:29;;;;;;;6.40;1.40;;;13.00;99.90;;;;;;5069767;28;20036;-60
2023/10/28 12:38:55;;;;;;;3.30;1.30;;;13.00;99.90;;;;;;5062656;28;20056;-59
2023/10/28 12:41:20;;;;;;;4.20;1.48;;;13.00;99.90;;;;;;5059018;28;20024;-59